createdAt,value
2023-02-11T00:00:23.972Z,14.12
2023-02-11T00:01:24.046Z,14.14
2023-02-11T00:02:24.042Z,14.15
2023-02-11T00:03:24.076Z,14.11
2023-02-11T00:04:24.039Z,14.12
2023-02-11T00:05:24.027Z,14.14
2023-02-11T00:06:24.016Z,14.15
2023-02-11T00:07:24.017Z,14.20
2023-02-11T00:08:24.043Z,14.18
2023-02-11T00:09:24.039Z,14.17
2023-02-11T00:10:24.028Z,14.14
2023-02-11T00:11:24.078Z,14.14
2023-02-11T00:12:24.066Z,14.15
2023-02-11T00:13:24.055Z,14.15
2023-02-11T00:14:24.061Z,14.21
2023-02-11T00:15:24.061Z,14.17
2023-02-11T00:16:24.097Z,14.15
2023-02-11T00:17:24.079Z,14.14
2023-02-11T00:18:24.082Z,14.17
2023-02-11T00:19:24.109Z,14.18
2023-02-11T00:20:24.094Z,14.17
2023-02-11T00:21:24.127Z,14.12
2023-02-11T00:22:24.127Z,14.12
2023-02-11T00:23:24.107Z,14.12
2023-02-11T00:24:24.135Z,14.15
2023-02-11T00:25:24.133Z,14.15
2023-02-11T00:26:24.167Z,14.09
2023-02-11T00:27:24.126Z,14.11
2023-02-11T00:28:24.157Z,14.11
2023-02-11T00:29:24.091Z,14.12
2023-02-11T00:30:24.142Z,14.09
2023-02-11T00:31:24.329Z,14.14
2023-02-11T00:32:24.117Z,14.12
2023-02-11T00:33:24.105Z,14.12
2023-02-11T00:34:24.116Z,14.11
2023-02-11T00:35:24.085Z,14.14
2023-02-11T00:36:24.135Z,14.09
2023-02-11T00:37:24.099Z,14.09
2023-02-11T00:38:24.107Z,14.14
2023-02-11T00:39:24.093Z,14.09
2023-02-11T00:40:24.090Z,14.11
2023-02-11T00:41:24.120Z,14.14
2023-02-11T00:42:24.104Z,14.15
2023-02-11T00:43:24.112Z,14.23
2023-02-11T00:44:24.101Z,14.17
2023-02-11T00:45:24.103Z,14.14
2023-02-11T00:46:24.167Z,14.10
2023-02-11T00:47:24.144Z,14.12
2023-02-11T00:48:24.117Z,14.14
2023-02-11T00:49:24.115Z,14.20
2023-02-11T00:50:24.119Z,14.15
2023-02-11T00:51:24.116Z,14.12
2023-02-11T00:52:24.097Z,14.20
2023-02-11T00:53:24.138Z,14.14
2023-02-11T00:54:24.150Z,14.11
2023-02-11T00:55:24.111Z,14.12
2023-02-11T00:56:24.154Z,14.12
2023-02-11T00:57:24.133Z,14.15
2023-02-11T00:58:24.141Z,14.15
2023-02-11T00:59:24.161Z,14.15
2023-02-11T01:00:24.173Z,14.14
2023-02-11T01:01:24.184Z,14.12
2023-02-11T01:02:24.160Z,14.15
2023-02-11T01:03:24.146Z,14.11
2023-02-11T01:04:24.184Z,14.10
2023-02-11T01:05:24.248Z,14.05
2023-02-11T01:06:24.141Z,14.05
2023-02-11T01:07:24.152Z,14.08
2023-02-11T01:08:24.159Z,14.08
2023-02-11T01:09:24.137Z,14.07
2023-02-11T01:10:24.158Z,14.11
2023-02-11T01:11:24.179Z,14.06
2023-02-11T01:12:24.157Z,14.09
2023-02-11T01:13:24.169Z,14.09
2023-02-11T01:14:24.166Z,14.08
2023-02-11T01:15:24.161Z,14.09
2023-02-11T01:16:24.304Z,14.06
2023-02-11T01:17:24.193Z,14.06
2023-02-11T01:18:24.202Z,14.08
2023-02-11T01:19:24.162Z,14.12
2023-02-11T01:20:24.165Z,14.06
2023-02-11T01:21:24.184Z,14.05
2023-02-11T01:22:24.184Z,14.03
2023-02-11T01:23:24.142Z,14.08
2023-02-11T01:24:24.175Z,14.05
2023-02-11T01:25:24.202Z,14.06
2023-02-11T01:26:24.213Z,14.06
2023-02-11T01:27:24.156Z,14.09
2023-02-11T01:28:24.299Z,14.06
2023-02-11T01:29:24.158Z,14.05
2023-02-11T01:30:24.151Z,14.08
2023-02-11T01:31:24.236Z,14.05
2023-02-11T01:32:24.196Z,14.08
2023-02-11T01:33:24.188Z,14.11
2023-02-11T01:34:24.205Z,14.02
2023-02-11T01:35:24.196Z,14.06
2023-02-11T01:36:24.224Z,14.05
2023-02-11T01:37:24.218Z,14.06
2023-02-11T01:38:24.189Z,14.08
2023-02-11T01:39:24.208Z,14.11
2023-02-11T01:40:24.219Z,14.06
2023-02-11T01:41:24.185Z,14.09
2023-02-11T01:42:24.201Z,14.00
2023-02-11T01:43:24.190Z,14.08
2023-02-11T01:44:24.234Z,14.06
2023-02-11T01:45:24.218Z,14.06
2023-02-11T01:46:24.301Z,14.08
2023-02-11T01:47:24.268Z,14.05
2023-02-11T01:48:24.216Z,14.05
2023-02-11T01:49:24.312Z,14.03
2023-02-11T01:50:24.232Z,14.08
2023-02-11T01:51:24.300Z,14.15
2023-02-11T01:52:24.239Z,14.09
2023-02-11T01:53:24.246Z,14.08
2023-02-11T01:54:24.252Z,14.06
2023-02-11T01:55:24.260Z,14.03
2023-02-11T01:56:24.268Z,14.14
2023-02-11T01:57:24.254Z,14.09
2023-02-11T01:58:24.246Z,14.11
2023-02-11T01:59:24.275Z,14.06
2023-02-11T02:00:24.341Z,14.09
2023-02-11T02:01:24.386Z,14.08
2023-02-11T02:02:24.304Z,14.12
2023-02-11T02:03:24.334Z,14.11
2023-02-11T02:04:24.293Z,14.02
2023-02-11T02:05:24.336Z,14.06
2023-02-11T02:06:24.291Z,13.98
2023-02-11T02:07:24.356Z,14.08
2023-02-11T02:08:24.290Z,14.03
2023-02-11T02:09:24.296Z,14.05
2023-02-11T02:10:24.318Z,14.01
2023-02-11T02:11:24.309Z,14.03
2023-02-11T02:12:24.277Z,14.02
2023-02-11T02:13:24.324Z,14.02
2023-02-11T02:14:24.288Z,14.05
2023-02-11T02:15:24.278Z,14.06
2023-02-11T02:16:24.325Z,14.00
2023-02-11T02:17:24.272Z,14.00
2023-02-11T02:18:24.289Z,14.05
2023-02-11T02:19:24.263Z,14.05
2023-02-11T02:20:24.326Z,14.03
2023-02-11T02:21:24.294Z,14.05
2023-02-11T02:22:24.291Z,13.97
2023-02-11T02:23:24.319Z,14.00
2023-02-11T02:24:24.300Z,13.99
2023-02-11T02:25:24.324Z,14.03
2023-02-11T02:26:24.304Z,14.03
2023-02-11T02:27:24.333Z,14.03
2023-02-11T02:28:24.383Z,14.05
2023-02-11T02:29:24.341Z,14.03
2023-02-11T02:30:24.468Z,14.03
2023-02-11T02:31:24.386Z,14.06
2023-02-11T02:32:24.317Z,13.99
2023-02-11T02:33:24.423Z,13.99
2023-02-11T02:34:24.320Z,14.03
2023-02-11T02:35:24.341Z,14.05
2023-02-11T02:36:24.339Z,14.06
2023-02-11T02:37:24.340Z,13.99
2023-02-11T02:38:24.312Z,13.99
2023-02-11T02:39:24.330Z,13.97
2023-02-11T02:40:24.301Z,14.02
2023-02-11T02:41:24.367Z,13.99
2023-02-11T02:42:24.333Z,13.97
2023-02-11T02:43:24.386Z,14.02
2023-02-11T02:44:24.346Z,13.99
2023-02-11T02:45:24.309Z,14.01
2023-02-11T02:46:24.395Z,13.99
2023-02-11T02:47:24.357Z,14.02
2023-02-11T02:48:24.401Z,14.03
2023-02-11T02:49:24.314Z,14.02
2023-02-11T02:50:24.371Z,14.02
2023-02-11T02:51:24.374Z,13.94
2023-02-11T02:52:24.343Z,14.02
2023-02-11T02:53:24.317Z,14.00
2023-02-11T02:54:24.338Z,13.92
2023-02-11T02:55:24.376Z,13.99
2023-02-11T02:56:24.361Z,13.96
2023-02-11T02:57:24.342Z,13.95
2023-02-11T02:58:24.368Z,13.97
2023-02-11T02:59:24.376Z,13.99
2023-02-11T03:00:24.350Z,13.96
2023-02-11T03:01:24.362Z,13.99
2023-02-11T03:02:24.343Z,13.97
2023-02-11T03:03:24.386Z,13.96
2023-02-11T03:04:24.341Z,13.89
2023-02-11T03:05:24.332Z,13.91
2023-02-11T03:06:24.356Z,13.86
2023-02-11T03:07:24.337Z,13.83
2023-02-11T03:08:24.353Z,13.99
2023-02-11T03:09:24.356Z,13.94
2023-02-11T03:10:24.337Z,13.97
2023-02-11T03:11:24.356Z,13.94
2023-02-11T03:12:24.371Z,13.97
2023-02-11T03:13:24.353Z,13.96
2023-02-11T03:14:24.417Z,13.94
2023-02-11T03:15:24.353Z,13.94
2023-02-11T03:16:24.421Z,13.91
2023-02-11T03:17:24.378Z,13.99
2023-02-11T03:18:24.368Z,13.95
2023-02-11T03:19:24.372Z,13.99
2023-02-11T03:20:24.409Z,13.92
2023-02-11T03:21:24.398Z,13.88
2023-02-11T03:22:24.395Z,13.93
2023-02-11T03:23:24.406Z,13.95
2023-02-11T03:24:24.412Z,13.83
2023-02-11T03:25:24.383Z,13.88
2023-02-11T03:26:24.414Z,13.92
2023-02-11T03:27:24.402Z,13.92
2023-02-11T03:28:24.467Z,13.89
2023-02-11T03:29:24.421Z,13.88
2023-02-11T03:30:24.416Z,13.91
2023-02-11T03:31:24.638Z,13.94
2023-02-11T03:32:24.414Z,13.92
2023-02-11T03:33:24.440Z,13.95
2023-02-11T03:34:24.439Z,13.94
2023-02-11T03:35:24.453Z,13.92
2023-02-11T03:36:24.451Z,13.89
2023-02-11T03:37:24.449Z,13.92
2023-02-11T03:38:24.471Z,13.91
2023-02-11T03:39:24.437Z,13.88
2023-02-11T03:40:24.443Z,13.86
2023-02-11T03:41:24.471Z,13.89
2023-02-11T03:42:24.447Z,13.88
2023-02-11T03:43:24.463Z,13.91
2023-02-11T03:44:24.434Z,13.89
2023-02-11T03:45:24.474Z,13.88
2023-02-11T03:46:24.485Z,13.95
2023-02-11T03:47:24.465Z,13.89
2023-02-11T03:48:24.474Z,13.88
2023-02-11T03:49:24.485Z,13.91
2023-02-11T03:50:24.475Z,13.94
2023-02-11T03:51:24.494Z,13.91
2023-02-11T03:52:24.491Z,13.91
2023-02-11T03:53:24.496Z,13.89
2023-02-11T03:54:24.523Z,13.89
2023-02-11T03:55:24.504Z,13.88
2023-02-11T03:56:24.508Z,13.82
2023-02-11T03:57:24.497Z,13.85
2023-02-11T03:58:24.552Z,13.85
2023-02-11T03:59:24.549Z,13.86
2023-02-11T04:00:24.540Z,13.91
2023-02-11T04:01:24.601Z,13.86
2023-02-11T04:02:24.560Z,13.86
2023-02-11T04:03:24.600Z,13.83
2023-02-11T04:04:24.568Z,13.85
2023-02-11T04:05:24.554Z,13.82
2023-02-11T04:06:24.556Z,13.94
2023-02-11T04:07:24.580Z,13.91
2023-02-11T04:08:24.564Z,13.88
2023-02-11T04:09:24.579Z,13.91
2023-02-11T04:10:24.582Z,13.86
2023-02-11T04:12:24.622Z,13.86
2023-02-11T04:13:24.644Z,13.92
2023-02-11T04:14:24.680Z,13.88
2023-02-11T04:15:24.696Z,13.85
2023-02-11T04:16:24.850Z,13.86
2023-02-11T04:17:24.769Z,13.85
2023-02-11T04:18:24.775Z,13.88
2023-02-11T04:19:24.780Z,13.88
2023-02-11T04:20:24.784Z,13.82
2023-02-11T04:21:24.842Z,13.82
2023-02-11T04:22:24.829Z,13.83
2023-02-11T04:23:24.857Z,13.86
2023-02-11T04:24:24.853Z,13.83
2023-02-11T04:25:24.893Z,13.88
2023-02-11T04:26:24.926Z,13.92
2023-02-11T04:27:24.931Z,13.88
2023-02-11T04:28:24.954Z,13.86
2023-02-11T04:29:24.993Z,13.79
2023-02-11T04:30:25.011Z,13.85
2023-02-11T04:31:25.161Z,13.86
2023-02-11T04:32:25.072Z,13.85
2023-02-11T04:33:25.043Z,13.85
2023-02-11T04:35:25.065Z,13.85
2023-02-11T04:36:25.151Z,13.83
2023-02-11T04:37:25.126Z,13.80
2023-02-11T04:38:25.151Z,13.82
2023-02-11T04:39:25.168Z,13.80
2023-02-11T04:41:25.198Z,13.82
2023-02-11T04:44:25.277Z,13.80
2023-02-11T04:45:25.281Z,13.80
2023-02-11T04:46:25.364Z,13.83
2023-02-11T04:47:25.331Z,13.84
2023-02-11T04:48:25.362Z,13.82
2023-02-11T04:49:25.372Z,13.85
2023-02-11T04:50:25.392Z,13.77
2023-02-11T04:51:25.409Z,13.80
2023-02-11T04:52:25.443Z,13.83
2023-02-11T04:53:25.445Z,13.82
2023-02-11T04:54:25.494Z,13.88
2023-02-11T04:55:25.544Z,13.77
2023-02-11T04:56:25.545Z,13.83
2023-02-11T04:57:25.563Z,13.85
2023-02-11T04:58:25.576Z,13.80
2023-02-11T04:59:25.621Z,13.87
2023-02-11T05:00:25.605Z,13.83
2023-02-11T05:01:25.681Z,13.78
2023-02-11T05:02:25.662Z,13.82
2023-02-11T05:03:25.656Z,13.76
2023-02-11T05:04:25.740Z,13.80
2023-02-11T05:05:25.729Z,13.85
2023-02-11T05:06:25.731Z,13.77
2023-02-11T05:07:25.737Z,13.79
2023-02-11T05:08:25.755Z,13.82
2023-02-11T05:09:25.781Z,13.79
2023-02-11T05:10:25.773Z,13.76
2023-02-11T05:11:25.794Z,13.83
2023-02-11T05:13:25.841Z,13.82
2023-02-11T05:29:26.100Z,13.77
2023-02-11T05:30:26.199Z,13.79
2023-02-11T05:31:26.134Z,13.77
2023-02-11T05:32:26.125Z,13.74
2023-02-11T05:33:26.169Z,13.76
2023-02-11T05:34:26.137Z,13.77
2023-02-11T05:35:26.181Z,13.77
2023-02-11T05:36:26.229Z,13.76
2023-02-11T05:37:26.259Z,13.73
2023-02-11T05:38:26.240Z,13.71
2023-02-11T05:39:26.259Z,13.77
2023-02-11T05:40:26.252Z,13.79
2023-02-11T05:41:26.304Z,13.76
2023-02-11T05:42:26.315Z,13.76
2023-02-11T05:43:26.342Z,13.80
2023-02-11T05:44:26.335Z,13.77
2023-02-11T05:45:26.375Z,13.82
2023-02-11T05:46:26.469Z,13.71
2023-02-11T05:47:26.367Z,13.74
2023-02-11T05:48:26.418Z,13.73
2023-02-11T05:49:26.430Z,13.76
2023-02-11T05:50:26.419Z,13.79
2023-02-11T05:51:26.470Z,13.76
2023-02-11T05:52:26.482Z,13.77
2023-02-11T05:53:26.476Z,13.77
2023-02-11T05:54:26.508Z,13.79
2023-02-11T05:55:26.513Z,13.83
2023-02-11T05:56:26.542Z,13.79
2023-02-11T05:57:26.525Z,13.77
2023-02-11T05:58:26.531Z,13.76
2023-02-11T05:59:26.591Z,13.74
2023-02-11T06:00:26.580Z,13.83
2023-02-11T06:01:26.683Z,13.70
2023-02-11T06:02:26.718Z,13.76
2023-02-11T06:03:26.698Z,13.74
2023-02-11T06:04:26.629Z,13.74
2023-02-11T06:05:26.647Z,13.83
2023-02-11T06:06:26.684Z,13.79
2023-02-11T06:07:26.679Z,13.76
2023-02-11T06:08:26.702Z,13.73
2023-02-11T06:09:26.675Z,13.77
2023-02-11T06:10:26.746Z,13.76
2023-02-11T06:11:26.742Z,13.80
2023-02-11T06:12:26.754Z,13.79
2023-02-11T06:13:26.793Z,13.76
2023-02-11T06:14:26.764Z,13.73
2023-02-11T06:15:26.794Z,13.76
2023-02-11T06:16:26.863Z,13.68
2023-02-11T06:17:26.835Z,13.74
2023-02-11T06:18:26.837Z,13.77
2023-02-11T06:19:26.830Z,13.80
2023-02-11T06:20:26.845Z,13.74
2023-02-11T06:21:42.500Z,13.71
2023-02-11T06:22:27.857Z,13.77
2023-02-11T06:23:29.183Z,13.79
2023-02-11T06:24:48.087Z,13.73
2023-02-11T06:25:27.838Z,13.71
2023-02-11T06:26:26.801Z,13.74
2023-02-11T06:27:26.828Z,13.77
2023-02-11T06:28:26.903Z,13.79
2023-02-11T06:29:26.820Z,13.80
2023-02-11T06:30:26.796Z,13.80
2023-02-11T06:31:26.896Z,13.74
2023-02-11T06:32:44.459Z,13.82
2023-02-11T06:33:27.791Z,13.77
2023-02-11T06:34:26.753Z,13.73
2023-02-11T06:35:26.783Z,13.73
2023-02-11T06:36:26.747Z,13.74
2023-02-11T06:37:26.753Z,13.73
2023-02-11T06:38:26.722Z,13.76
2023-02-11T06:39:27.280Z,13.76
2023-02-11T06:40:26.694Z,13.71
2023-02-11T06:41:26.709Z,13.73
2023-02-11T06:42:26.725Z,13.74
2023-02-11T06:43:26.675Z,13.68
2023-02-11T06:44:26.726Z,13.70
2023-02-11T06:45:26.697Z,13.70
2023-02-11T06:46:26.789Z,13.70
2023-02-11T06:47:26.664Z,13.74
2023-02-11T06:48:26.689Z,13.74
2023-02-11T06:49:26.640Z,13.65
2023-02-11T06:50:26.624Z,13.67
2023-02-11T06:51:26.640Z,13.73
2023-02-11T06:52:26.662Z,13.73
2023-02-11T06:53:26.618Z,13.76
2023-02-11T06:54:26.618Z,13.73
2023-02-11T06:55:26.620Z,13.79
2023-02-11T06:56:26.601Z,13.70
2023-02-11T06:57:26.580Z,13.76
2023-02-11T06:58:26.557Z,13.64
2023-02-11T06:59:26.592Z,13.71
2023-02-11T07:00:27.279Z,13.67
2023-02-11T07:01:26.604Z,13.67
2023-02-11T07:02:26.596Z,13.74
2023-02-11T07:03:26.532Z,13.68
2023-02-11T07:04:26.535Z,13.71
2023-02-11T07:05:26.525Z,13.74
2023-02-11T07:06:26.538Z,13.71
2023-02-11T07:07:26.536Z,13.74
2023-02-11T07:08:26.561Z,13.71
2023-02-11T07:09:26.548Z,13.71
2023-02-11T07:10:26.556Z,13.68
2023-02-11T07:11:26.611Z,13.65
2023-02-11T07:12:26.590Z,13.62
2023-02-11T07:13:26.613Z,13.64
2023-02-11T07:14:26.634Z,13.62
2023-02-11T07:15:26.612Z,13.56
2023-02-11T07:16:26.733Z,13.65
2023-02-11T07:17:26.638Z,13.62
2023-02-11T07:18:26.689Z,13.65
2023-02-11T07:19:26.680Z,13.65
2023-02-11T07:20:26.737Z,13.67
2023-02-11T07:21:26.702Z,13.67
2023-02-11T07:22:26.689Z,13.67
2023-02-11T07:23:26.699Z,13.67
2023-02-11T07:24:26.741Z,13.70
2023-02-11T07:25:26.741Z,13.64
2023-02-11T07:26:26.780Z,13.64
2023-02-11T07:27:26.759Z,13.64
2023-02-11T07:28:26.822Z,13.56
2023-02-11T07:29:26.810Z,13.61
2023-02-11T07:30:26.805Z,13.62
2023-02-11T07:31:26.949Z,13.58
2023-02-11T07:32:26.825Z,13.61
2023-02-11T07:33:26.805Z,13.62
2023-02-11T07:34:26.813Z,13.61
2023-02-11T07:35:26.852Z,13.61
2023-02-11T07:36:26.853Z,13.61
2023-02-11T07:37:26.846Z,13.67
2023-02-11T07:38:26.834Z,13.64
2023-02-11T07:39:26.870Z,13.62
2023-02-11T07:40:26.908Z,13.67
2023-02-11T07:41:26.935Z,13.66
2023-02-11T07:42:26.884Z,13.62
2023-02-11T07:43:26.911Z,13.62
2023-02-11T07:44:26.921Z,13.64
2023-02-11T07:45:26.939Z,13.67
2023-02-11T07:46:27.063Z,13.67
2023-02-11T07:47:26.944Z,13.62
2023-02-11T07:48:26.975Z,13.59
2023-02-11T07:49:26.991Z,13.71
2023-02-11T07:50:26.993Z,13.62
2023-02-11T07:51:27.047Z,13.67
2023-02-11T07:52:27.780Z,13.62
2023-02-11T07:53:27.016Z,13.61
2023-02-11T07:54:27.019Z,13.62
2023-02-11T07:55:27.050Z,13.61
2023-02-11T07:56:27.088Z,13.64
2023-02-11T07:57:27.092Z,13.64
2023-02-11T07:58:27.115Z,13.64
2023-02-11T07:59:27.124Z,13.64
2023-02-11T08:00:27.286Z,13.61
2023-02-11T08:01:27.164Z,13.59
2023-02-11T08:02:27.188Z,13.56
2023-02-11T08:03:27.150Z,13.58
2023-02-11T08:04:27.160Z,13.61
2023-02-11T08:05:27.163Z,13.65
2023-02-11T08:06:27.216Z,13.62
2023-02-11T08:07:27.204Z,13.61
2023-02-11T08:08:27.203Z,13.61
2023-02-11T08:09:27.211Z,13.62
2023-02-11T08:10:27.322Z,13.59
2023-02-11T08:11:27.200Z,13.58
2023-02-11T08:12:27.160Z,13.68
2023-02-11T08:13:27.193Z,13.53
2023-02-11T08:14:27.177Z,13.58
2023-02-11T08:15:27.186Z,13.62
2023-02-11T08:16:27.280Z,13.59
2023-02-11T08:17:27.162Z,13.62
2023-02-11T08:18:27.163Z,13.62
2023-02-11T08:19:27.169Z,13.62
2023-02-11T08:20:27.198Z,13.66
2023-02-11T08:21:27.164Z,13.64
2023-02-11T08:22:27.170Z,13.65
2023-02-11T08:23:27.165Z,13.62
2023-02-11T08:24:27.169Z,13.70
2023-02-11T08:25:27.115Z,13.67
2023-02-11T08:26:27.154Z,13.59
2023-02-11T08:27:27.126Z,13.64
2023-02-11T08:28:27.155Z,13.62
2023-02-11T08:29:27.136Z,13.64
2023-02-11T08:31:27.243Z,13.61
2023-02-11T08:32:27.106Z,13.59
2023-02-11T08:33:27.092Z,13.61
2023-02-11T08:34:27.147Z,13.58
2023-02-11T08:35:27.122Z,13.61
2023-02-11T08:36:27.153Z,13.58
2023-02-11T08:37:27.103Z,13.67
2023-02-11T08:38:27.140Z,13.62
2023-02-11T08:39:27.093Z,13.64
2023-02-11T08:40:27.115Z,13.61
2023-02-11T08:41:27.114Z,13.62
2023-02-11T08:42:27.100Z,13.62
2023-02-11T08:43:27.091Z,13.59
2023-02-11T08:44:27.105Z,13.62
2023-02-11T08:45:27.097Z,13.61
2023-02-11T08:46:27.204Z,13.59
2023-02-11T08:47:27.122Z,13.57
2023-02-11T09:20:26.995Z,13.53
2023-02-11T09:21:27.010Z,13.54
2023-02-11T09:22:26.984Z,13.53
2023-02-11T09:23:26.998Z,13.52
2023-02-11T09:24:26.970Z,13.44
2023-02-11T09:25:26.975Z,13.55
2023-02-11T09:26:26.954Z,13.46
2023-02-11T09:27:26.932Z,13.47
2023-02-11T09:28:26.955Z,13.52
2023-02-11T09:29:26.949Z,13.55
2023-02-11T09:30:27.026Z,13.56
2023-02-11T09:31:27.145Z,13.53
2023-02-11T09:32:26.977Z,13.52
2023-02-11T09:33:26.918Z,13.58
2023-02-11T09:34:26.905Z,13.50
2023-02-11T09:35:26.935Z,13.55
2023-02-11T09:36:26.958Z,13.52
2023-02-11T09:37:26.950Z,13.50
2023-02-11T09:38:26.923Z,13.49
2023-02-11T09:39:26.934Z,13.49
2023-02-11T09:40:26.962Z,13.52
2023-02-11T09:41:26.922Z,13.47
2023-02-11T09:42:26.938Z,13.52
2023-02-11T09:43:26.929Z,13.56
2023-02-11T09:44:26.965Z,13.52
2023-02-11T09:45:26.923Z,13.56
2023-02-11T09:46:26.960Z,13.55
2023-02-11T09:47:26.972Z,13.52
2023-02-11T09:48:26.964Z,13.47
2023-02-11T09:49:26.922Z,13.53
2023-02-11T09:50:26.932Z,13.50
2023-02-11T09:51:26.948Z,13.53
2023-02-11T09:52:26.912Z,13.50
2023-02-11T09:53:26.901Z,13.56
2023-02-11T09:54:26.935Z,13.55
2023-02-11T09:55:26.894Z,13.57
2023-02-11T09:56:26.919Z,13.50
2023-02-11T09:57:29.157Z,13.52
2023-02-11T09:58:26.912Z,13.52
2023-02-11T09:59:26.916Z,13.50
2023-02-11T10:00:26.901Z,13.52
2023-02-11T10:01:26.932Z,13.51
2023-02-11T10:02:26.940Z,13.41
2023-02-11T10:03:26.894Z,13.49
2023-02-11T10:04:26.981Z,13.50
2023-02-11T10:05:26.930Z,13.44
2023-02-11T10:06:26.896Z,13.49
2023-02-11T10:07:26.966Z,13.47
2023-02-11T10:08:26.916Z,13.39
2023-02-11T10:09:26.898Z,13.43
2023-02-11T10:10:26.909Z,13.44
2023-02-11T10:11:31.849Z,13.47
2023-02-11T10:12:27.913Z,13.49
2023-02-11T10:13:26.908Z,13.44
2023-02-11T10:14:26.877Z,13.44
2023-02-11T10:15:26.934Z,13.44
2023-02-11T10:16:26.882Z,13.51
2023-02-11T10:17:26.842Z,13.47
2023-02-11T10:18:26.877Z,13.47
2023-02-11T10:19:26.892Z,13.47
2023-02-11T10:20:26.845Z,13.46
2023-02-11T10:21:26.858Z,13.46
2023-02-11T10:26:26.816Z,13.43
2023-02-11T10:27:26.817Z,13.40
2023-02-11T10:28:26.853Z,13.44
2023-02-11T10:29:26.809Z,13.43
2023-02-11T10:30:26.820Z,13.38
2023-02-11T10:31:26.901Z,13.43
2023-02-11T10:32:26.799Z,13.46
2023-02-11T10:33:26.766Z,13.43
2023-02-11T10:34:26.776Z,13.43
2023-02-11T10:35:26.740Z,13.46
2023-02-11T10:36:26.763Z,13.44
2023-02-11T10:37:26.754Z,13.44
2023-02-11T10:38:26.725Z,13.43
2023-02-11T10:39:26.775Z,13.46
2023-02-11T10:40:26.711Z,13.44
2023-02-11T10:41:26.717Z,13.43
2023-02-11T10:42:26.732Z,13.41
2023-02-11T10:43:26.721Z,13.44
2023-02-11T10:44:26.704Z,13.41
2023-02-11T10:45:26.668Z,13.41
2023-02-11T10:46:26.785Z,13.43
2023-02-11T10:47:26.651Z,13.36
2023-02-11T10:48:26.662Z,13.38
2023-02-11T10:49:26.683Z,13.38
2023-02-11T10:50:26.647Z,13.41
2023-02-11T10:51:26.654Z,13.35
2023-02-11T10:52:26.655Z,13.43
2023-02-11T10:53:26.608Z,13.43
2023-02-11T10:54:26.616Z,13.38
2023-02-11T10:55:26.592Z,13.40
2023-02-11T10:56:26.625Z,13.43
2023-02-11T10:57:26.708Z,13.39
2023-02-11T10:58:26.597Z,13.46
2023-02-11T10:59:26.567Z,13.47
2023-02-11T11:00:26.578Z,13.41
2023-02-11T11:01:26.589Z,13.41
2023-02-11T11:02:26.569Z,13.36
2023-02-11T11:03:26.535Z,13.44
2023-02-11T11:04:26.570Z,13.44
2023-02-11T11:05:26.542Z,13.47
2023-02-11T11:06:26.516Z,13.43
2023-02-11T11:07:26.514Z,13.44
2023-02-11T11:08:26.575Z,13.43
2023-02-11T11:09:26.506Z,13.39
2023-02-11T11:10:26.499Z,13.47
2023-02-11T11:11:26.544Z,13.44
2023-02-11T11:12:26.499Z,13.44
2023-02-11T11:13:26.503Z,13.39
2023-02-11T11:14:26.501Z,13.46
2023-02-11T11:15:26.501Z,13.50
2023-02-11T11:16:26.565Z,13.49
2023-02-11T11:17:26.517Z,13.47
2023-02-11T11:18:26.468Z,13.47
2023-02-11T11:19:26.458Z,13.44
2023-02-11T11:20:26.473Z,13.47
2023-02-11T11:21:26.465Z,13.47
2023-02-11T11:22:26.478Z,13.49
2023-02-11T11:23:26.461Z,13.47
2023-02-11T11:24:27.937Z,13.46
2023-02-11T11:25:27.351Z,13.44
2023-02-11T11:26:26.450Z,13.47
2023-02-11T11:27:26.487Z,13.46
2023-02-11T11:28:26.540Z,13.47
2023-02-11T11:29:26.429Z,13.46
2023-02-11T11:30:26.429Z,13.47
2023-02-11T11:31:26.573Z,13.47
2023-02-11T11:32:26.434Z,13.50
2023-02-11T11:33:26.412Z,13.49
2023-02-11T11:34:26.423Z,13.49
2023-02-11T11:35:26.443Z,13.43
2023-02-11T11:36:26.388Z,13.47
2023-02-11T11:37:26.433Z,13.46
2023-02-11T11:38:26.418Z,13.47
2023-02-11T11:39:26.430Z,13.47
2023-02-11T11:40:26.384Z,13.43
2023-02-11T11:41:26.394Z,13.44
2023-02-11T11:42:26.413Z,13.46
2023-02-11T11:43:26.427Z,13.49
2023-02-11T11:44:26.388Z,13.41
2023-02-11T11:45:26.394Z,13.47
2023-02-11T11:46:26.515Z,13.43
2023-02-11T11:47:26.395Z,13.43
2023-02-11T11:48:26.379Z,13.46
2023-02-11T11:49:26.346Z,13.46
2023-02-11T11:50:26.357Z,13.47
2023-02-11T11:51:26.371Z,13.47
2023-02-11T11:52:26.373Z,13.47
2023-02-11T11:53:26.330Z,13.39
2023-02-11T11:54:26.345Z,13.44
2023-02-11T11:55:26.334Z,13.46
2023-02-11T11:56:26.348Z,13.43
2023-02-11T11:57:26.351Z,13.47
2023-02-11T11:58:26.350Z,13.47
2023-02-11T11:59:26.378Z,13.43
2023-02-11T12:00:26.397Z,13.49
2023-02-11T12:01:26.356Z,13.47
2023-02-11T12:02:26.406Z,13.44
2023-02-11T12:03:26.448Z,13.46
2023-02-11T12:04:26.350Z,13.49
2023-02-11T12:05:26.294Z,13.44
2023-02-11T12:06:26.292Z,13.46
2023-02-11T12:07:26.347Z,13.50
2023-02-11T12:08:26.302Z,13.53
2023-02-11T12:09:26.284Z,13.44
2023-02-11T12:10:26.299Z,13.47
2023-02-11T12:11:26.301Z,13.50
2023-02-11T12:12:26.301Z,13.50
2023-02-11T12:13:26.290Z,13.46
2023-02-11T12:14:26.313Z,13.52
2023-02-11T12:15:26.310Z,13.44
2023-02-11T12:16:26.338Z,13.49
2023-02-11T12:17:26.282Z,13.47
2023-02-11T12:18:26.320Z,13.49
2023-02-11T12:19:26.284Z,13.53
2023-02-11T12:20:26.314Z,13.56
2023-02-11T12:21:26.297Z,13.50
2023-02-11T12:22:26.273Z,13.46
2023-02-11T12:23:26.275Z,13.55
2023-02-11T12:24:26.297Z,13.50
2023-02-11T12:25:26.294Z,13.46
2023-02-11T12:26:26.299Z,13.49
2023-02-11T12:27:26.302Z,13.55
2023-02-11T12:28:26.340Z,13.51
2023-02-11T12:29:26.313Z,13.48
2023-02-11T12:30:26.318Z,13.47
2023-02-11T12:31:26.457Z,13.51
2023-02-11T12:32:26.300Z,13.51
2023-02-11T12:33:26.287Z,13.51
2023-02-11T12:34:26.334Z,13.47
2023-02-11T12:35:26.311Z,13.51
2023-02-11T12:36:26.308Z,13.51
2023-02-11T12:37:26.318Z,13.53
2023-02-11T12:38:26.299Z,13.53
2023-02-11T12:39:26.314Z,13.51
2023-02-11T12:40:26.297Z,13.53
2023-02-11T12:41:26.290Z,13.54
2023-02-11T12:42:26.292Z,13.57
2023-02-11T12:43:26.311Z,13.53
2023-02-11T12:44:26.301Z,13.47
2023-02-11T12:45:26.391Z,13.53
2023-02-11T12:46:26.343Z,13.59
2023-02-11T12:47:26.343Z,13.53
2023-02-11T12:48:26.337Z,13.51
2023-02-11T12:49:26.337Z,13.54
2023-02-11T12:50:26.358Z,13.60
2023-02-11T12:51:26.409Z,13.53
2023-02-11T12:52:26.368Z,13.51
2023-02-11T12:53:26.376Z,13.54
2023-02-11T12:54:26.354Z,13.56
2023-02-11T12:55:26.377Z,13.56
2023-02-11T12:56:26.408Z,13.56
2023-02-11T12:57:26.411Z,13.50
2023-02-11T12:58:35.644Z,13.56
2023-02-11T12:59:27.422Z,13.57
2023-02-11T13:00:26.375Z,13.56
2023-02-11T13:01:26.485Z,13.62
2023-02-11T13:02:26.457Z,13.53
2023-02-11T13:03:26.385Z,13.59
2023-02-11T13:04:26.364Z,13.57
2023-02-11T13:05:26.374Z,13.60
2023-02-11T13:06:26.379Z,13.59
2023-02-11T13:07:26.341Z,13.59
2023-02-11T13:08:26.357Z,13.57
2023-02-11T13:09:26.324Z,13.54
2023-02-11T13:10:26.347Z,13.53
2023-02-11T13:11:26.327Z,13.57
2023-02-11T13:12:26.330Z,13.54
2023-02-11T13:13:26.329Z,13.59
2023-02-11T13:14:26.356Z,13.60
2023-02-11T13:15:26.291Z,13.62
2023-02-11T13:16:26.338Z,13.59
2023-02-11T13:17:26.265Z,13.62
2023-02-11T13:18:26.248Z,13.63
2023-02-11T13:19:26.263Z,13.60
2023-02-11T13:20:26.257Z,13.59
2023-02-11T13:21:26.231Z,13.63
2023-02-11T13:22:26.239Z,13.62
2023-02-11T13:23:26.215Z,13.62
2023-02-11T13:24:26.228Z,13.63
2023-02-11T13:25:26.196Z,13.65
2023-02-11T13:26:26.189Z,13.68
2023-02-11T13:27:26.243Z,13.66
2023-02-11T13:28:26.241Z,13.63
2023-02-11T13:29:26.209Z,13.71
2023-02-11T13:30:26.170Z,13.63
2023-02-11T13:31:26.285Z,13.66
2023-02-11T13:32:26.177Z,13.60
2023-02-11T13:33:26.179Z,13.65
2023-02-11T13:34:26.222Z,13.66
2023-02-11T13:35:26.212Z,13.62
2023-02-11T13:36:26.213Z,13.69
2023-02-11T13:37:26.268Z,13.67
2023-02-11T13:38:26.248Z,13.63
2023-02-11T13:39:26.255Z,13.60
2023-02-11T13:40:26.285Z,13.66
2023-02-11T13:41:26.298Z,13.66
2023-02-11T13:42:26.324Z,13.65
2023-02-11T13:43:26.312Z,13.69
2023-02-11T13:44:26.333Z,13.59
2023-02-11T13:45:26.333Z,13.65
2023-02-11T13:46:26.389Z,13.66
2023-02-11T13:47:26.343Z,13.62
2023-02-11T13:48:26.339Z,13.65
2023-02-11T13:49:26.381Z,13.71
2023-02-11T13:50:26.391Z,13.66